sensor_id;sensor_type;location;lat;lon;timestamp;P1;durP1;ratioP1;P2;durP2;ratioP2
6547;SDS011;3307;52.416;16.862;2023-03-14T00:00:31;3.43;;;2.80;;
6547;SDS011;3307;52.416;16.862;2023-03-14T00:02:56;3.83;;;3.10;;
6547;SDS011;3307;52.416;16.862;2023-03-14T00:05:22;3.87;;;2.80;;
6547;SDS011;3307;52.416;16.862;2023-03-14T00:07:47;3.20;;;2.90;;
6547;SDS011;3307;52.416;16.862;2023-03-14T00:10:14;3.30;;;3.00;;
6547;SDS011;3307;52.416;16.862;2023-03-14T00:12:40;3.25;;;3.00;;
6547;SDS011;3307;52.416;16.862;2023-03-14T00:15:06;4.85;;;3.15;;
6547;SDS011;3307;52.416;16.862;2023-03-14T00:17:33;4.65;;;3.55;;
6547;SDS011;3307;52.416;16.862;2023-03-14T00:19:59;4.45;;;3.30;;
6547;SDS011;3307;52.416;16.862;2023-03-14T00:22:30;4.55;;;4.15;;
6547;SDS011;3307;52.416;16.862;2023-03-14T00:24:56;3.30;;;2.55;;
6547;SDS011;3307;52.416;16.862;2023-03-14T00:27:22;3.03;;;2.80;;
6547;SDS011;3307;52.416;16.862;2023-03-14T00:29:48;3.23;;;2.93;;
6547;SDS011;3307;52.416;16.862;2023-03-14T00:32:13;3.50;;;3.20;;
6547;SDS011;3307;52.416;16.862;2023-03-14T00:34:38;4.60;;;3.43;;
6547;SDS011;3307;52.416;16.862;2023-03-14T00:37:04;4.47;;;3.28;;
6547;SDS011;3307;52.416;16.862;2023-03-14T00:39:30;4.70;;;2.93;;
6547;SDS011;3307;52.416;16.862;2023-03-14T00:41:55;3.73;;;3.20;;
6547;SDS011;3307;52.416;16.862;2023-03-14T00:44:21;3.37;;;2.67;;
6547;SDS011;3307;52.416;16.862;2023-03-14T00:46:46;2.80;;;2.47;;
6547;SDS011;3307;52.416;16.862;2023-03-14T00:49:12;2.67;;;2.30;;
6547;SDS011;3307;52.416;16.862;2023-03-14T00:51:37;3.13;;;2.43;;
6547;SDS011;3307;52.416;16.862;2023-03-14T00:54:03;2.60;;;2.30;;
6547;SDS011;3307;52.416;16.862;2023-03-14T00:56:28;2.60;;;1.90;;
6547;SDS011;3307;52.416;16.862;2023-03-14T00:58:54;3.30;;;1.83;;
6547;SDS011;3307;52.416;16.862;2023-03-14T01:01:20;2.25;;;1.65;;
6547;SDS011;3307;52.416;16.862;2023-03-14T01:03:46;2.83;;;1.63;;
6547;SDS011;3307;52.416;16.862;2023-03-14T01:06:13;1.50;;;1.30;;
6547;SDS011;3307;52.416;16.862;2023-03-14T01:08:40;1.90;;;1.45;;
6547;SDS011;3307;52.416;16.862;2023-03-14T01:11:09;1.63;;;1.27;;
6547;SDS011;3307;52.416;16.862;2023-03-14T01:13:40;1.40;;;1.25;;
6547;SDS011;3307;52.416;16.862;2023-03-14T01:16:07;2.40;;;1.07;;
6547;SDS011;3307;52.416;16.862;2023-03-14T01:18:34;1.52;;;1.10;;
6547;SDS011;3307;52.416;16.862;2023-03-14T01:21:03;2.15;;;1.00;;
6547;SDS011;3307;52.416;16.862;2023-03-14T01:23:34;1.42;;;0.98;;
6547;SDS011;3307;52.416;16.862;2023-03-14T01:25:59;2.90;;;1.00;;
6547;SDS011;3307;52.416;16.862;2023-03-14T01:28:25;0.80;;;0.80;;
6547;SDS011;3307;52.416;16.862;2023-03-14T01:30:51;1.00;;;0.70;;
6547;SDS011;3307;52.416;16.862;2023-03-14T01:33:16;1.27;;;1.00;;
6547;SDS011;3307;52.416;16.862;2023-03-14T01:35:42;1.00;;;0.90;;
6547;SDS011;3307;52.416;16.862;2023-03-14T01:38:07;1.87;;;1.00;;
6547;SDS011;3307;52.416;16.862;2023-03-14T01:40:32;1.30;;;1.10;;
6547;SDS011;3307;52.416;16.862;2023-03-14T01:43:04;1.23;;;0.90;;
6547;SDS011;3307;52.416;16.862;2023-03-14T01:48:21;1.35;;;1.25;;
6547;SDS011;3307;52.416;16.862;2023-03-14T01:50:46;0.80;;;0.77;;
6547;SDS011;3307;52.416;16.862;2023-03-14T01:53:12;1.27;;;0.90;;
6547;SDS011;3307;52.416;16.862;2023-03-14T01:55:38;1.95;;;1.30;;
6547;SDS011;3307;52.416;16.862;2023-03-14T01:58:04;1.93;;;1.57;;
6547;SDS011;3307;52.416;16.862;2023-03-14T02:00:30;1.80;;;1.45;;
6547;SDS011;3307;52.416;16.862;2023-03-14T02:02:57;2.43;;;1.50;;
6547;SDS011;3307;52.416;16.862;2023-03-14T02:05:34;1.40;;;1.30;;
6547;SDS011;3307;52.416;16.862;2023-03-14T02:08:01;1.27;;;1.00;;
6547;SDS011;3307;52.416;16.862;2023-03-14T02:10:29;1.88;;;1.20;;
6547;SDS011;3307;52.416;16.862;2023-03-14T02:12:57;2.10;;;1.50;;
6547;SDS011;3307;52.416;16.862;2023-03-14T02:15:25;2.05;;;1.85;;
6547;SDS011;3307;52.416;16.862;2023-03-14T02:17:50;2.40;;;1.93;;
6547;SDS011;3307;52.416;16.862;2023-03-14T02:23:07;1.77;;;1.60;;
6547;SDS011;3307;52.416;16.862;2023-03-14T02:28:01;2.40;;;1.88;;
6547;SDS011;3307;52.416;16.862;2023-03-14T02:30:28;2.33;;;2.13;;
6547;SDS011;3307;52.416;16.862;2023-03-14T02:32:57;2.38;;;2.15;;
6547;SDS011;3307;52.416;16.862;2023-03-14T02:35:26;2.78;;;2.42;;
6547;SDS011;3307;52.416;16.862;2023-03-14T02:37:55;3.83;;;2.47;;
6547;SDS011;3307;52.416;16.862;2023-03-14T02:40:24;2.70;;;2.45;;
6547;SDS011;3307;52.416;16.862;2023-03-14T02:42:49;3.97;;;3.13;;
6547;SDS011;3307;52.416;16.862;2023-03-14T02:47:45;3.20;;;2.77;;
6547;SDS011;3307;52.416;16.862;2023-03-14T02:50:24;2.53;;;2.33;;
6547;SDS011;3307;52.416;16.862;2023-03-14T02:52:51;2.58;;;2.35;;
6547;SDS011;3307;52.416;16.862;2023-03-14T02:55:23;3.23;;;2.93;;
6547;SDS011;3307;52.416;16.862;2023-03-14T02:57:50;3.70;;;2.90;;
6547;SDS011;3307;52.416;16.862;2023-03-14T03:00:16;3.40;;;2.87;;
6547;SDS011;3307;52.416;16.862;2023-03-14T03:02:41;3.20;;;2.90;;
6547;SDS011;3307;52.416;16.862;2023-03-14T03:05:07;3.53;;;3.23;;
6547;SDS011;3307;52.416;16.862;2023-03-14T03:07:32;3.70;;;3.40;;
6547;SDS011;3307;52.416;16.862;2023-03-14T03:09:58;4.60;;;3.33;;
6547;SDS011;3307;52.416;16.862;2023-03-14T03:12:23;4.13;;;3.37;;
6547;SDS011;3307;52.416;16.862;2023-03-14T03:14:49;4.10;;;3.70;;
6547;SDS011;3307;52.416;16.862;2023-03-14T03:17:14;3.13;;;2.77;;
6547;SDS011;3307;52.416;16.862;2023-03-14T03:19:40;3.90;;;3.60;;
6547;SDS011;3307;52.416;16.862;2023-03-14T03:22:05;4.10;;;3.70;;
6547;SDS011;3307;52.416;16.862;2023-03-14T03:24:31;4.87;;;4.00;;
6547;SDS011;3307;52.416;16.862;2023-03-14T03:26:56;4.10;;;3.70;;
6547;SDS011;3307;52.416;16.862;2023-03-14T03:29:22;4.30;;;3.78;;
6547;SDS011;3307;52.416;16.862;2023-03-14T03:31:48;3.47;;;3.17;;
6547;SDS011;3307;52.416;16.862;2023-03-14T03:34:13;3.97;;;3.67;;
6547;SDS011;3307;52.416;16.862;2023-03-14T03:36:40;5.45;;;3.40;;
6547;SDS011;3307;52.416;16.862;2023-03-14T03:39:05;4.30;;;3.90;;
6547;SDS011;3307;52.416;16.862;2023-03-14T03:41:31;5.90;;;4.03;;
6547;SDS011;3307;52.416;16.862;2023-03-14T03:43:57;4.85;;;4.45;;
6547;SDS011;3307;52.416;16.862;2023-03-14T03:46:23;4.80;;;4.40;;
6547;SDS011;3307;52.416;16.862;2023-03-14T03:48:48;4.73;;;4.33;;
6547;SDS011;3307;52.416;16.862;2023-03-14T03:51:14;4.83;;;4.13;;
6547;SDS011;3307;52.416;16.862;2023-03-14T03:53:41;6.07;;;4.63;;
6547;SDS011;3307;52.416;16.862;2023-03-14T03:56:07;6.85;;;5.00;;
6547;SDS011;3307;52.416;16.862;2023-03-14T03:58:33;5.30;;;4.78;;
6547;SDS011;3307;52.416;16.862;2023-03-14T04:00:58;5.57;;;5.07;;
6547;SDS011;3307;52.416;16.862;2023-03-14T04:03:24;5.43;;;5.00;;
6547;SDS011;3307;52.416;16.862;2023-03-14T04:06:04;8.83;;;5.77;;
6547;SDS011;3307;52.416;16.862;2023-03-14T04:08:31;6.53;;;5.95;;
6547;SDS011;3307;52.416;16.862;2023-03-14T04:10:57;6.80;;;6.20;;
6547;SDS011;3307;52.416;16.862;2023-03-14T04:13:24;6.22;;;5.63;;
6547;SDS011;3307;52.416;16.862;2023-03-14T04:15:50;6.53;;;5.90;;
6547;SDS011;3307;52.416;16.862;2023-03-14T04:18:16;5.97;;;5.45;;
6547;SDS011;3307;52.416;16.862;2023-03-14T04:20:41;6.70;;;6.00;;
6547;SDS011;3307;52.416;16.862;2023-03-14T04:23:07;8.80;;;5.10;;
6547;SDS011;3307;52.416;16.862;2023-03-14T04:25:32;7.80;;;5.90;;
6547;SDS011;3307;52.416;16.862;2023-03-14T04:27:57;5.53;;;4.93;;
6547;SDS011;3307;52.416;16.862;2023-03-14T04:30:23;6.07;;;5.50;;
6547;SDS011;3307;52.416;16.862;2023-03-14T04:32:48;6.77;;;6.07;;
6547;SDS011;3307;52.416;16.862;2023-03-14T04:35:14;6.03;;;5.37;;
6547;SDS011;3307;52.416;16.862;2023-03-14T04:37:39;6.40;;;5.80;;
6547;SDS011;3307;52.416;16.862;2023-03-14T04:40:07;6.80;;;5.88;;
6547;SDS011;3307;52.416;16.862;2023-03-14T04:42:33;6.90;;;6.13;;
6547;SDS011;3307;52.416;16.862;2023-03-14T04:44:59;6.10;;;5.33;;
6547;SDS011;3307;52.416;16.862;2023-03-14T04:47:25;6.57;;;5.50;;
6547;SDS011;3307;52.416;16.862;2023-03-14T04:49:50;7.33;;;5.70;;
6547;SDS011;3307;52.416;16.862;2023-03-14T04:52:16;6.97;;;5.60;;
6547;SDS011;3307;52.416;16.862;2023-03-14T04:54:41;7.47;;;6.60;;
6547;SDS011;3307;52.416;16.862;2023-03-14T04:57:07;8.77;;;5.47;;
6547;SDS011;3307;52.416;16.862;2023-03-14T04:59:32;7.03;;;5.97;;
6547;SDS011;3307;52.416;16.862;2023-03-14T05:01:57;6.80;;;6.00;;
6547;SDS011;3307;52.416;16.862;2023-03-14T05:04:23;7.03;;;5.50;;
6547;SDS011;3307;52.416;16.862;2023-03-14T05:06:48;9.40;;;6.97;;
6547;SDS011;3307;52.416;16.862;2023-03-14T05:09:14;7.67;;;6.87;;
6547;SDS011;3307;52.416;16.862;2023-03-14T05:11:40;7.75;;;6.95;;
6547;SDS011;3307;52.416;16.862;2023-03-14T05:14:06;8.17;;;7.40;;
6547;SDS011;3307;52.416;16.862;2023-03-14T05:16:31;11.83;;;7.50;;
6547;SDS011;3307;52.416;16.862;2023-03-14T05:18:57;7.87;;;7.13;;
6547;SDS011;3307;52.416;16.862;2023-03-14T05:21:22;7.40;;;6.70;;
6547;SDS011;3307;52.416;16.862;2023-03-14T05:23:48;6.63;;;6.00;;
6547;SDS011;3307;52.416;16.862;2023-03-14T05:26:13;7.10;;;6.17;;
6547;SDS011;3307;52.416;16.862;2023-03-14T05:28:38;7.47;;;6.20;;
6547;SDS011;3307;52.416;16.862;2023-03-14T05:31:07;6.93;;;6.17;;
6547;SDS011;3307;52.416;16.862;2023-03-14T05:33:33;6.75;;;6.10;;
6547;SDS011;3307;52.416;16.862;2023-03-14T05:35:58;7.40;;;6.20;;
6547;SDS011;3307;52.416;16.862;2023-03-14T05:38:24;8.97;;;6.47;;
6547;SDS011;3307;52.416;16.862;2023-03-14T05:40:49;9.27;;;6.10;;
6547;SDS011;3307;52.416;16.862;2023-03-14T05:43:15;7.43;;;6.10;;
6547;SDS011;3307;52.416;16.862;2023-03-14T05:45:41;6.57;;;5.90;;
6547;SDS011;3307;52.416;16.862;2023-03-14T05:48:07;8.05;;;6.60;;
6547;SDS011;3307;52.416;16.862;2023-03-14T05:50:33;7.67;;;5.63;;
6547;SDS011;3307;52.416;16.862;2023-03-14T05:52:58;7.57;;;6.23;;
6547;SDS011;3307;52.416;16.862;2023-03-14T05:55:24;6.73;;;6.07;;
6547;SDS011;3307;52.416;16.862;2023-03-14T05:57:50;6.82;;;5.95;;
6547;SDS011;3307;52.416;16.862;2023-03-14T06:00:15;9.33;;;6.60;;
6547;SDS011;3307;52.416;16.862;2023-03-14T06:02:41;7.40;;;6.53;;
6547;SDS011;3307;52.416;16.862;2023-03-14T06:05:07;6.57;;;5.90;;
6547;SDS011;3307;52.416;16.862;2023-03-14T06:07:33;8.57;;;5.53;;
6547;SDS011;3307;52.416;16.862;2023-03-14T06:09:58;6.80;;;5.83;;
6547;SDS011;3307;52.416;16.862;2023-03-14T06:12:24;6.23;;;5.60;;
6547;SDS011;3307;52.416;16.862;2023-03-14T06:14:49;6.87;;;5.10;;
6547;SDS011;3307;52.416;16.862;2023-03-14T06:17:15;6.60;;;6.00;;
6547;SDS011;3307;52.416;16.862;2023-03-14T06:19:40;6.40;;;5.73;;
6547;SDS011;3307;52.416;16.862;2023-03-14T06:22:05;5.93;;;5.33;;
6547;SDS011;3307;52.416;16.862;2023-03-14T06:24:31;5.70;;;5.10;;
6547;SDS011;3307;52.416;16.862;2023-03-14T06:26:56;10.10;;;5.47;;
6547;SDS011;3307;52.416;16.862;2023-03-14T06:29:22;5.97;;;5.20;;
6547;SDS011;3307;52.416;16.862;2023-03-14T06:31:47;6.17;;;5.40;;
6547;SDS011;3307;52.416;16.862;2023-03-14T06:34:12;7.33;;;5.20;;
6547;SDS011;3307;52.416;16.862;2023-03-14T06:36:38;5.90;;;5.30;;
6547;SDS011;3307;52.416;16.862;2023-03-14T06:39:04;5.30;;;4.10;;
6547;SDS011;3307;52.416;16.862;2023-03-14T06:41:30;4.90;;;4.32;;
6547;SDS011;3307;52.416;16.862;2023-03-14T06:43:56;5.17;;;4.40;;
6547;SDS011;3307;52.416;16.862;2023-03-14T06:46:21;5.73;;;4.73;;
6547;SDS011;3307;52.416;16.862;2023-03-14T06:48:46;7.67;;;5.60;;
6547;SDS011;3307;52.416;16.862;2023-03-14T06:51:12;5.87;;;5.33;;
6547;SDS011;3307;52.416;16.862;2023-03-14T06:53:37;5.23;;;4.73;;
6547;SDS011;3307;52.416;16.862;2023-03-14T06:56:03;6.33;;;5.07;;
6547;SDS011;3307;52.416;16.862;2023-03-14T06:58:29;5.30;;;4.80;;
6547;SDS011;3307;52.416;16.862;2023-03-14T07:00:54;5.33;;;4.83;;
6547;SDS011;3307;52.416;16.862;2023-03-14T07:03:20;5.57;;;4.60;;
6547;SDS011;3307;52.416;16.862;2023-03-14T07:05:45;4.93;;;4.53;;
6547;SDS011;3307;52.416;16.862;2023-03-14T07:08:11;6.00;;;5.40;;
6547;SDS011;3307;52.416;16.862;2023-03-14T07:10:36;4.67;;;4.27;;
6547;SDS011;3307;52.416;16.862;2023-03-14T07:13:02;4.80;;;4.30;;
6547;SDS011;3307;52.416;16.862;2023-03-14T07:15:27;5.23;;;4.70;;
6547;SDS011;3307;52.416;16.862;2023-03-14T07:17:53;6.23;;;4.57;;
6547;SDS011;3307;52.416;16.862;2023-03-14T07:20:18;5.90;;;4.80;;
6547;SDS011;3307;52.416;16.862;2023-03-14T07:22:44;4.93;;;4.53;;
6547;SDS011;3307;52.416;16.862;2023-03-14T07:25:12;5.15;;;4.65;;
6547;SDS011;3307;52.416;16.862;2023-03-14T07:27:38;4.67;;;4.27;;
6547;SDS011;3307;52.416;16.862;2023-03-14T07:30:04;5.47;;;4.60;;
6547;SDS011;3307;52.416;16.862;2023-03-14T07:32:30;6.65;;;4.95;;
6547;SDS011;3307;52.416;16.862;2023-03-14T07:34:56;6.97;;;4.97;;
6547;SDS011;3307;52.416;16.862;2023-03-14T07:37:21;8.20;;;5.57;;
6547;SDS011;3307;52.416;16.862;2023-03-14T07:39:47;5.90;;;5.40;;
6547;SDS011;3307;52.416;16.862;2023-03-14T07:42:12;7.20;;;5.30;;
6547;SDS011;3307;52.416;16.862;2023-03-14T07:44:37;5.33;;;4.57;;
6547;SDS011;3307;52.416;16.862;2023-03-14T07:47:03;9.23;;;5.10;;
6547;SDS011;3307;52.416;16.862;2023-03-14T07:49:28;5.67;;;3.93;;
6547;SDS011;3307;52.416;16.862;2023-03-14T07:51:54;4.40;;;4.00;;
6547;SDS011;3307;52.416;16.862;2023-03-14T07:54:19;6.33;;;3.90;;
6547;SDS011;3307;52.416;16.862;2023-03-14T07:56:45;4.30;;;3.90;;
6547;SDS011;3307;52.416;16.862;2023-03-14T07:59:10;3.93;;;3.13;;
6547;SDS011;3307;52.416;16.862;2023-03-14T08:01:37;3.60;;;3.28;;
6547;SDS011;3307;52.416;16.862;2023-03-14T08:04:02;4.57;;;3.87;;
6547;SDS011;3307;52.416;16.862;2023-03-14T08:06:28;3.40;;;3.10;;
6547;SDS011;3307;52.416;16.862;2023-03-14T08:08:53;5.07;;;2.90;;
6547;SDS011;3307;52.416;16.862;2023-03-14T08:11:19;4.63;;;3.03;;
6547;SDS011;3307;52.416;16.862;2023-03-14T08:13:44;3.30;;;2.70;;
6547;SDS011;3307;52.416;16.862;2023-03-14T08:16:15;3.33;;;2.97;;
6547;SDS011;3307;52.416;16.862;2023-03-14T08:18:42;4.40;;;3.65;;
6547;SDS011;3307;52.416;16.862;2023-03-14T08:21:08;4.03;;;3.00;;
6547;SDS011;3307;52.416;16.862;2023-03-14T08:23:33;5.57;;;3.67;;
6547;SDS011;3307;52.416;16.862;2023-03-14T08:25:59;6.33;;;4.10;;
6547;SDS011;3307;52.416;16.862;2023-03-14T08:28:24;7.63;;;3.87;;
6547;SDS011;3307;52.416;16.862;2023-03-14T08:30:55;4.15;;;3.83;;
6547;SDS011;3307;52.416;16.862;2023-03-14T08:33:21;5.53;;;3.63;;
6547;SDS011;3307;52.416;16.862;2023-03-14T08:35:47;5.13;;;3.93;;
6547;SDS011;3307;52.416;16.862;2023-03-14T08:38:12;5.40;;;4.00;;
6547;SDS011;3307;52.416;16.862;2023-03-14T08:40:38;3.50;;;2.87;;
6547;SDS011;3307;52.416;16.862;2023-03-14T08:43:03;6.57;;;4.20;;
6547;SDS011;3307;52.416;16.862;2023-03-14T08:45:29;6.27;;;4.00;;
6547;SDS011;3307;52.416;16.862;2023-03-14T08:47:54;5.47;;;4.07;;
6547;SDS011;3307;52.416;16.862;2023-03-14T08:50:20;4.80;;;3.90;;
6547;SDS011;3307;52.416;16.862;2023-03-14T08:52:45;6.40;;;4.90;;
6547;SDS011;3307;52.416;16.862;2023-03-14T08:55:11;4.50;;;3.70;;
6547;SDS011;3307;52.416;16.862;2023-03-14T08:57:36;5.37;;;3.43;;
6547;SDS011;3307;52.416;16.862;2023-03-14T09:00:02;7.70;;;4.27;;
6547;SDS011;3307;52.416;16.862;2023-03-14T09:02:40;8.90;;;4.43;;
6547;SDS011;3307;52.416;16.862;2023-03-14T09:05:06;7.70;;;5.77;;
6547;SDS011;3307;52.416;16.862;2023-03-14T09:07:32;7.37;;;5.70;;
6547;SDS011;3307;52.416;16.862;2023-03-14T09:09:57;7.10;;;3.77;;
6547;SDS011;3307;52.416;16.862;2023-03-14T09:12:23;5.83;;;3.20;;
6547;SDS011;3307;52.416;16.862;2023-03-14T09:14:48;3.93;;;3.50;;
6547;SDS011;3307;52.416;16.862;2023-03-14T09:17:13;5.47;;;3.83;;
6547;SDS011;3307;52.416;16.862;2023-03-14T09:19:39;4.20;;;2.90;;
6547;SDS011;3307;52.416;16.862;2023-03-14T09:22:04;5.40;;;4.43;;
6547;SDS011;3307;52.416;16.862;2023-03-14T09:24:30;6.00;;;4.13;;
6547;SDS011;3307;52.416;16.862;2023-03-14T09:26:55;7.07;;;4.93;;
6547;SDS011;3307;52.416;16.862;2023-03-14T09:29:23;5.03;;;3.20;;
6547;SDS011;3307;52.416;16.862;2023-03-14T09:31:49;5.03;;;3.30;;
6547;SDS011;3307;52.416;16.862;2023-03-14T09:34:15;5.70;;;3.10;;
6547;SDS011;3307;52.416;16.862;2023-03-14T09:36:40;2.53;;;2.33;;
6547;SDS011;3307;52.416;16.862;2023-03-14T09:39:06;4.00;;;2.80;;
6547;SDS011;3307;52.416;16.862;2023-03-14T09:41:36;4.50;;;3.37;;
6547;SDS011;3307;52.416;16.862;2023-03-14T09:46:35;4.10;;;3.10;;
6547;SDS011;3307;52.416;16.862;2023-03-14T09:49:02;4.35;;;3.13;;
6547;SDS011;3307;52.416;16.862;2023-03-14T09:51:28;6.13;;;3.10;;
6547;SDS011;3307;52.416;16.862;2023-03-14T09:53:54;7.68;;;3.80;;
6547;SDS011;3307;52.416;16.862;2023-03-14T09:56:23;3.43;;;3.00;;
6547;SDS011;3307;52.416;16.862;2023-03-14T09:58:54;7.43;;;3.53;;
6547;SDS011;3307;52.416;16.862;2023-03-14T10:01:25;3.40;;;2.60;;
6547;SDS011;3307;52.416;16.862;2023-03-14T10:03:55;4.17;;;3.53;;
6547;SDS011;3307;52.416;16.862;2023-03-14T10:06:24;5.00;;;3.80;;
6547;SDS011;3307;52.416;16.862;2023-03-14T10:08:51;6.70;;;3.80;;
6547;SDS011;3307;52.416;16.862;2023-03-14T10:11:18;4.27;;;3.13;;
6547;SDS011;3307;52.416;16.862;2023-03-14T10:14:03;5.53;;;3.40;;
6547;SDS011;3307;52.416;16.862;2023-03-14T10:16:34;5.70;;;3.80;;
6547;SDS011;3307;52.416;16.862;2023-03-14T10:19:02;3.80;;;3.30;;
6547;SDS011;3307;52.416;16.862;2023-03-14T10:21:40;5.10;;;3.33;;
6547;SDS011;3307;52.416;16.862;2023-03-14T10:24:29;4.67;;;3.70;;
6547;SDS011;3307;52.416;16.862;2023-03-14T10:27:05;5.43;;;3.60;;
6547;SDS011;3307;52.416;16.862;2023-03-14T10:30:26;4.67;;;3.70;;
6547;SDS011;3307;52.416;16.862;2023-03-14T10:32:39;7.50;;;3.33;;
6547;SDS011;3307;52.416;16.862;2023-03-14T10:38:01;3.93;;;3.53;;
6547;SDS011;3307;52.416;16.862;2023-03-14T10:42:55;11.23;;;3.40;;
6547;SDS011;3307;52.416;16.862;2023-03-14T10:53:21;4.73;;;3.60;;
6547;SDS011;3307;52.416;16.862;2023-03-14T10:55:47;4.93;;;3.50;;
6547;SDS011;3307;52.416;16.862;2023-03-14T10:58:33;4.50;;;3.50;;
6547;SDS011;3307;52.416;16.862;2023-03-14T11:01:08;4.17;;;3.17;;
6547;SDS011;3307;52.416;16.862;2023-03-14T11:03:41;4.50;;;3.43;;
6547;SDS011;3307;52.416;16.862;2023-03-14T11:06:11;5.43;;;4.10;;
6547;SDS011;3307;52.416;16.862;2023-03-14T11:11:31;3.97;;;3.07;;
6547;SDS011;3307;52.416;16.862;2023-03-14T11:27:55;3.50;;;2.83;;
6547;SDS011;3307;52.416;16.862;2023-03-14T11:32:31;2.97;;;2.70;;
6547;SDS011;3307;52.416;16.862;2023-03-14T11:35:16;5.03;;;3.30;;
6547;SDS011;3307;52.416;16.862;2023-03-14T11:40:56;6.90;;;3.50;;
6547;SDS011;3307;52.416;16.862;2023-03-14T11:45:54;4.60;;;3.40;;
6547;SDS011;3307;52.416;16.862;2023-03-14T11:51:30;6.33;;;3.50;;
6547;SDS011;3307;52.416;16.862;2023-03-14T11:54:14;5.13;;;3.77;;
6547;SDS011;3307;52.416;16.862;2023-03-14T11:57:03;3.57;;;3.23;;
6547;SDS011;3307;52.416;16.862;2023-03-14T12:10:40;5.10;;;3.40;;
6547;SDS011;3307;52.416;16.862;2023-03-14T12:13:10;6.67;;;3.50;;
6547;SDS011;3307;52.416;16.862;2023-03-14T12:15:40;9.30;;;3.90;;
6547;SDS011;3307;52.416;16.862;2023-03-14T12:18:31;5.10;;;3.83;;
6547;SDS011;3307;52.416;16.862;2023-03-14T12:21:09;3.37;;;2.70;;
6547;SDS011;3307;52.416;16.862;2023-03-14T12:23:37;4.47;;;3.00;;
6547;SDS011;3307;52.416;16.862;2023-03-14T12:28:41;4.93;;;2.17;;
6547;SDS011;3307;52.416;16.862;2023-03-14T12:42:11;2.83;;;2.23;;
6547;SDS011;3307;52.416;16.862;2023-03-14T12:49:44;3.67;;;1.93;;
6547;SDS011;3307;52.416;16.862;2023-03-14T12:52:14;3.17;;;1.97;;
6547;SDS011;3307;52.416;16.862;2023-03-14T12:59:59;3.00;;;1.80;;
6547;SDS011;3307;52.416;16.862;2023-03-14T13:02:38;3.30;;;1.40;;
6547;SDS011;3307;52.416;16.862;2023-03-14T13:05:10;2.80;;;1.37;;
6547;SDS011;3307;52.416;16.862;2023-03-14T13:10:25;2.43;;;1.50;;
6547;SDS011;3307;52.416;16.862;2023-03-14T13:15:34;1.80;;;1.27;;
6547;SDS011;3307;52.416;16.862;2023-03-14T13:18:15;1.93;;;1.57;;
6547;SDS011;3307;52.416;16.862;2023-03-14T13:20:51;2.37;;;1.80;;
6547;SDS011;3307;52.416;16.862;2023-03-14T13:23:22;2.17;;;1.60;;
6547;SDS011;3307;52.416;16.862;2023-03-14T13:25:52;2.07;;;1.77;;
6547;SDS011;3307;52.416;16.862;2023-03-14T13:28:18;1.87;;;1.50;;
6547;SDS011;3307;52.416;16.862;2023-03-14T13:30:48;2.87;;;1.47;;
6547;SDS011;3307;52.416;16.862;2023-03-14T13:33:19;3.63;;;2.00;;
6547;SDS011;3307;52.416;16.862;2023-03-14T13:35:47;3.40;;;1.80;;
6547;SDS011;3307;52.416;16.862;2023-03-14T13:38:17;1.77;;;1.43;;
6547;SDS011;3307;52.416;16.862;2023-03-14T13:40:45;2.60;;;1.43;;
6547;SDS011;3307;52.416;16.862;2023-03-14T13:43:21;3.20;;;2.00;;
6547;SDS011;3307;52.416;16.862;2023-03-14T13:45:54;2.50;;;1.87;;
6547;SDS011;3307;52.416;16.862;2023-03-14T13:48:22;2.57;;;2.37;;
6547;SDS011;3307;52.416;16.862;2023-03-14T13:50:56;4.23;;;2.30;;
6547;SDS011;3307;52.416;16.862;2023-03-14T13:53:24;4.43;;;2.43;;
6547;SDS011;3307;52.416;16.862;2023-03-14T13:55:51;3.20;;;2.40;;
6547;SDS011;3307;52.416;16.862;2023-03-14T13:58:21;2.90;;;2.50;;
6547;SDS011;3307;52.416;16.862;2023-03-14T14:00:56;4.33;;;2.60;;
6547;SDS011;3307;52.416;16.862;2023-03-14T14:03:24;2.60;;;2.07;;
6547;SDS011;3307;52.416;16.862;2023-03-14T14:05:49;8.97;;;2.93;;
6547;SDS011;3307;52.416;16.862;2023-03-14T14:08:15;5.63;;;2.90;;
6547;SDS011;3307;52.416;16.862;2023-03-14T14:10:40;5.33;;;2.67;;
6547;SDS011;3307;52.416;16.862;2023-03-14T14:13:06;4.53;;;2.57;;
6547;SDS011;3307;52.416;16.862;2023-03-14T14:15:36;5.00;;;2.20;;
6547;SDS011;3307;52.416;16.862;2023-03-14T14:18:07;5.30;;;2.37;;
6547;SDS011;3307;52.416;16.862;2023-03-14T14:20:36;4.73;;;2.33;;
6547;SDS011;3307;52.416;16.862;2023-03-14T14:23:07;3.20;;;1.93;;
6547;SDS011;3307;52.416;16.862;2023-03-14T14:25:36;2.57;;;2.10;;
6547;SDS011;3307;52.416;16.862;2023-03-14T14:33:43;7.03;;;2.17;;
6547;SDS011;3307;52.416;16.862;2023-03-14T14:39:11;4.28;;;3.67;;
6547;SDS011;3307;52.416;16.862;2023-03-14T14:41:43;7.03;;;2.67;;
6547;SDS011;3307;52.416;16.862;2023-03-14T14:44:12;5.90;;;2.43;;
6547;SDS011;3307;52.416;16.862;2023-03-14T14:46:39;1.77;;;1.45;;
6547;SDS011;3307;52.416;16.862;2023-03-14T14:49:15;2.20;;;2.00;;
6547;SDS011;3307;52.416;16.862;2023-03-14T14:51:46;1.92;;;1.70;;
6547;SDS011;3307;52.416;16.862;2023-03-14T14:54:17;2.67;;;1.90;;
6547;SDS011;3307;52.416;16.862;2023-03-14T14:56:46;3.33;;;2.00;;
6547;SDS011;3307;52.416;16.862;2023-03-14T14:59:24;2.13;;;1.92;;
6547;SDS011;3307;52.416;16.862;2023-03-14T15:01:57;3.45;;;2.78;;
6547;SDS011;3307;52.416;16.862;2023-03-14T15:04:24;2.40;;;1.95;;
6547;SDS011;3307;52.416;16.862;2023-03-14T15:06:49;4.30;;;2.20;;
6547;SDS011;3307;52.416;16.862;2023-03-14T15:09:15;2.13;;;1.93;;
6547;SDS011;3307;52.416;16.862;2023-03-14T15:11:42;2.65;;;2.20;;
6547;SDS011;3307;52.416;16.862;2023-03-14T15:14:08;4.05;;;3.35;;
6547;SDS011;3307;52.416;16.862;2023-03-14T15:16:33;4.50;;;3.17;;
6547;SDS011;3307;52.416;16.862;2023-03-14T15:19:00;5.77;;;3.77;;
6547;SDS011;3307;52.416;16.862;2023-03-14T15:21:27;5.50;;;3.05;;
6547;SDS011;3307;52.416;16.862;2023-03-14T15:23:53;3.67;;;3.30;;
6547;SDS011;3307;52.416;16.862;2023-03-14T15:26:20;3.30;;;2.55;;
6547;SDS011;3307;52.416;16.862;2023-03-14T15:28:47;4.20;;;3.10;;
6547;SDS011;3307;52.416;16.862;2023-03-14T15:31:13;4.17;;;3.50;;
6547;SDS011;3307;52.416;16.862;2023-03-14T15:33:39;5.17;;;3.93;;
6547;SDS011;3307;52.416;16.862;2023-03-14T15:36:22;4.87;;;3.20;;
6547;SDS011;3307;52.416;16.862;2023-03-14T15:38:49;6.57;;;4.30;;
6547;SDS011;3307;52.416;16.862;2023-03-14T15:41:16;5.23;;;4.20;;
6547;SDS011;3307;52.416;16.862;2023-03-14T15:43:41;7.37;;;5.10;;
6547;SDS011;3307;52.416;16.862;2023-03-14T15:46:10;5.90;;;5.30;;
6547;SDS011;3307;52.416;16.862;2023-03-14T15:48:36;7.00;;;4.40;;
6547;SDS011;3307;52.416;16.862;2023-03-14T15:51:02;5.10;;;4.03;;
6547;SDS011;3307;52.416;16.862;2023-03-14T15:53:27;3.80;;;3.10;;
6547;SDS011;3307;52.416;16.862;2023-03-14T15:55:53;5.70;;;3.23;;
6547;SDS011;3307;52.416;16.862;2023-03-14T15:58:19;5.37;;;3.80;;
6547;SDS011;3307;52.416;16.862;2023-03-14T16:00:45;4.00;;;3.43;;
6547;SDS011;3307;52.416;16.862;2023-03-14T16:03:11;3.80;;;3.40;;
6547;SDS011;3307;52.416;16.862;2023-03-14T16:05:37;6.18;;;3.33;;
6547;SDS011;3307;52.416;16.862;2023-03-14T16:08:03;6.55;;;4.20;;
6547;SDS011;3307;52.416;16.862;2023-03-14T16:10:29;8.50;;;4.83;;
6547;SDS011;3307;52.416;16.862;2023-03-14T16:12:55;5.23;;;4.17;;
6547;SDS011;3307;52.416;16.862;2023-03-14T16:15:20;4.70;;;4.20;;
6547;SDS011;3307;52.416;16.862;2023-03-14T16:17:46;6.30;;;4.13;;
6547;SDS011;3307;52.416;16.862;2023-03-14T16:20:11;5.47;;;4.40;;
6547;SDS011;3307;52.416;16.862;2023-03-14T16:22:37;5.67;;;4.77;;
6547;SDS011;3307;52.416;16.862;2023-03-14T16:25:03;6.17;;;4.10;;
6547;SDS011;3307;52.416;16.862;2023-03-14T16:27:30;5.82;;;5.18;;
6547;SDS011;3307;52.416;16.862;2023-03-14T16:29:56;4.67;;;4.20;;
6547;SDS011;3307;52.416;16.862;2023-03-14T16:32:24;5.40;;;4.85;;
6547;SDS011;3307;52.416;16.862;2023-03-14T16:34:50;4.57;;;3.70;;
6547;SDS011;3307;52.416;16.862;2023-03-14T16:37:15;4.87;;;3.80;;
6547;SDS011;3307;52.416;16.862;2023-03-14T16:39:40;5.57;;;4.27;;
6547;SDS011;3307;52.416;16.862;2023-03-14T16:42:06;4.60;;;4.10;;
6547;SDS011;3307;52.416;16.862;2023-03-14T16:44:31;6.27;;;4.67;;